Time;durP1;ratioP1;P1;durP2;ratioP2;P2;SDS_P1;SDS_P2;PMS_P1;PMS_P2;Temp;Humidity;BMP_temperature;BMP_pressure;BME280_temperature;BME280_humidity;BME280_pressure;Samples;Min_cycle;Max_cycle;Signal;HPM_P1;HPM_P2
2022/06/01 00:01:19;;;;;;;5.03;3.40;;;;;;;10.67;100.00;95371.22;5025012;28;20040;-72
2022/06/01 00:03:44;;;;;;;6.20;3.03;;;;;;;10.73;100.00;95372.75;5019782;28;20566;-72
2022/06/01 00:06:11;;;;;;;5.03;3.20;;;;;;;10.79;100.00;95378.75;5026526;28;20045;-71
2022/06/01 00:08:38;;;;;;;8.48;3.20;;;;;;;10.77;100.00;95371.13;5029788;28;20037;-72
2022/06/01 00:11:04;;;;;;;4.45;3.05;;;;;;;10.75;100.00;95378.53;5029357;28;20095;-72
2022/06/01 00:13:30;;;;;;;6.35;3.15;;;;;;;10.68;100.00;95372.78;5029867;28;20072;-72
2022/06/01 00:15:56;;;;;;;5.30;3.00;;;;;;;10.74;100.00;95376.94;5030112;28;20124;-72
2022/06/01 00:18:22;;;;;;;4.18;2.80;;;;;;;10.70;100.00;95370.66;5030197;28;20447;-72
2022/06/01 00:20:50;;;;;;;5.65;2.88;;;;;;;10.67;100.00;95373.84;5027998;28;20045;-72
2022/06/01 00:23:15;;;;;;;4.13;2.97;;;;;;;10.64;100.00;95366.50;5028212;28;20041;-72
2022/06/01 00:25:41;;;;;;;4.80;2.88;;;;;;;10.58;100.00;95363.88;5028009;28;20515;-72
2022/06/01 00:28:07;;;;;;;5.28;3.05;;;;;;;10.58;100.00;95371.78;5042558;28;20037;-72
2022/06/01 00:30:33;;;;;;;8.00;2.72;;;;;;;10.51;100.00;95363.41;5026054;28;20045;-72
2022/06/01 00:32:58;;;;;;;5.25;3.25;;;;;;;10.54;100.00;95368.13;5029698;28;20049;-72
2022/06/01 00:35:25;;;;;;;5.68;2.83;;;;;;;10.63;100.00;95372.81;5026890;28;20057;-72
2022/06/01 00:37:51;;;;;;;5.70;2.88;;;;;;;10.63;100.00;95370.19;5029610;28;20052;-72
2022/06/01 00:40:20;;;;;;;5.28;2.88;;;;;;;10.57;100.00;95372.84;5027760;28;20403;-72
2022/06/01 00:42:49;;;;;;;4.93;3.00;;;;;;;10.63;100.00;95372.81;5025639;28;20042;-72
2022/06/01 00:45:18;;;;;;;4.90;3.15;;;;;;;10.58;100.00;95374.41;5028498;28;20128;-72
2022/06/01 00:47:44;;;;;;;5.07;3.42;;;;;;;10.58;100.00;95366.50;5025150;28;20046;-72
2022/06/01 00:50:31;;;;;;;5.28;3.20;;;;;;;10.57;100.00;95362.34;5025444;28;20048;-72
2022/06/01 00:53:01;;;;;;;5.70;3.05;;;;;;;10.53;100.00;95366.56;5028252;28;20046;-72
2022/06/01 00:55:32;;;;;;;6.97;3.30;;;;;;;10.52;100.00;95370.25;5023216;28;20546;-72
2022/06/01 00:58:05;;;;;;;4.65;2.83;;;;;;;10.50;100.00;95369.75;5027750;28;20045;-71
2022/06/01 01:00:33;;;;;;;5.57;3.08;;;;;;;10.56;100.00;95376.53;5024013;28;20132;-72
2022/06/01 01:03:01;;;;;;;5.90;3.13;;;;;;;10.72;100.00;95379.09;5028927;28;20568;-72
2022/06/01 01:05:27;;;;;;;4.45;2.88;;;;;;;10.66;100.00;95377.53;5029293;28;20526;-72
2022/06/01 01:07:55;;;;;;;7.35;2.97;;;;;;;10.61;100.00;95373.09;5022361;28;20040;-72
2022/06/01 01:10:21;;;;;;;6.07;3.35;;;;;;;10.69;100.00;95377.00;5027597;28;20151;-72
2022/06/01 01:13:04;;;;;;;5.40;2.95;;;;;;;10.62;100.00;95373.88;5018492;28;20209;-72
2022/06/01 01:15:40;;;;;;;4.93;2.80;;;;;;;10.53;100.00;95377.09;5017415;28;20085;-72
2022/06/01 01:18:11;;;;;;;4.97;3.20;;;;;;;10.51;100.00;95368.66;5028730;28;20070;-72
2022/06/01 01:20:43;;;;;;;5.78;3.50;;;;;;;10.56;100.00;95376.53;5022041;28;20041;-72
2022/06/01 01:23:23;;;;;;;7.63;3.13;;;;;;;10.56;100.00;95376.53;5023909;28;20477;-72
2022/06/01 01:25:48;;;;;;;7.50;3.17;;;;;;;10.51;100.00;95363.41;5024025;28;20045;-72
2022/06/01 01:28:14;;;;;;;5.13;3.00;;;;;;;10.45;100.00;95372.38;5022929;28;20049;-73
2022/06/01 01:30:50;;;;;;;7.75;3.47;;;;;;;10.54;100.00;95372.59;5015448;28;20072;-72
2022/06/01 01:33:19;;;;;;;3.92;2.78;;;;;;;10.49;100.00;95365.53;5023255;28;20068;-72
2022/06/01 01:35:49;;;;;;;4.45;2.95;;;;;;;10.58;100.00;95371.78;5016212;28;20045;-72
2022/06/01 01:38:21;;;;;;;5.40;3.10;;;;;;;10.56;100.00;95376.53;5021375;28;20034;-72
2022/06/01 01:40:58;;;;;;;4.90;2.85;;;;;;;10.52;100.00;95374.72;5026772;28;20050;-72
2022/06/01 01:43:23;;;;;;;5.40;3.08;;;;;;;10.51;100.00;95387.06;5027040;28;20041;-72
2022/06/01 01:45:49;;;;;;;5.07;3.30;;;;;;;10.52;100.00;95391.28;5028784;28;20573;-71
2022/06/01 01:48:17;;;;;;;5.13;3.08;;;;;;;10.50;100.00;95377.63;5032696;28;20069;-71
2022/06/01 01:50:43;;;;;;;4.25;3.15;;;;;;;10.56;100.00;95376.53;5026128;28;20077;-71
2022/06/01 01:53:08;;;;;;;5.05;3.38;;;;;;;10.45;100.00;95375.00;5022680;28;20120;-71
2022/06/01 01:55:49;;;;;;;7.07;3.33;;;;;;;10.42;100.00;95388.72;5028454;28;20037;-71
2022/06/01 01:58:39;;;;;;;5.55;3.10;;;;;;;10.48;100.00;95390.25;5024489;28;20496;-71
2022/06/01 02:01:13;;;;;;;4.90;3.38;;;;;;;10.41;100.00;95389.75;5027363;28;20302;-72
2022/06/01 02:03:51;;;;;;;7.03;3.15;;;;;;;10.40;100.00;95388.19;5028302;28;20568;-72
2022/06/01 02:06:28;;;;;;;5.72;3.08;;;;;;;10.40;100.00;95403.97;5028572;28;20117;-72
2022/06/01 02:09:03;;;;;;;5.15;3.08;;;;;;;10.42;100.00;95395.84;5027879;28;20529;-72
2022/06/01 02:14:52;;;;;;;11.10;3.40;;;;;;;10.36;100.00;95387.19;5024982;28;20389;-73
2022/06/01 02:17:28;;;;;;;5.45;3.30;;;;;;;10.31;100.00;95395.03;5027646;28;20042;-73
2022/06/01 02:20:10;;;;;;;5.30;3.25;;;;;;;10.32;100.00;95384.25;5024890;28;20033;-73
2022/06/01 02:22:38;;;;;;;5.40;3.10;;;;;;;10.29;100.00;95391.91;5028170;28;20545;-73
2022/06/01 02:25:05;;;;;;;5.45;3.53;;;;;;;10.21;100.00;95385.34;5029305;28;20049;-72
2022/06/01 02:27:30;;;;;;;5.47;3.17;;;;;;;10.17;100.00;95384.31;5032121;28;20049;-72
2022/06/01 02:30:16;;;;;;;5.43;3.15;;;;;;;10.23;100.00;95384.03;5027906;28;20644;-72
2022/06/01 02:32:43;;;;;;;5.53;3.35;;;;;;;10.32;100.00;95386.09;5032164;28;20033;-71
2022/06/01 02:35:11;;;;;;;5.53;3.30;;;;;;;10.28;100.00;95380.59;5032423;28;20712;-71
2022/06/01 02:37:39;;;;;;;7.32;3.53;;;;;;;10.36;100.00;95387.19;5030178;28;20064;-71
2022/06/01 02:40:11;;;;;;;5.25;3.28;;;;;;;10.40;100.00;95388.19;5027251;28;20495;-71
2022/06/01 02:42:46;;;;;;;7.70;3.08;;;;;;;10.39;100.00;95386.63;5024968;28;20060;-71
2022/06/01 02:45:13;;;;;;;6.03;3.35;;;;;;;10.44;100.00;95383.97;5025636;28;20042;-71
2022/06/01 02:47:42;;;;;;;5.82;3.33;;;;;;;10.35;100.00;95390.84;5029774;28;20064;-71
2022/06/01 02:50:12;;;;;;;7.72;3.53;;;;;;;10.32;100.00;95386.88;5027278;28;20582;-71
2022/06/01 02:52:39;;;;;;;6.85;3.60;;;;;;;10.35;100.00;95385.59;5031354;28;20041;-72
2022/06/01 02:55:05;;;;;;;6.63;3.80;;;;;;;10.44;100.00;95383.19;5024669;28;20415;-72
2022/06/01 02:57:38;;;;;;;7.75;3.53;;;;;;;10.39;100.00;95386.63;5028338;28;20116;-72
2022/06/01 03:00:07;;;;;;;5.63;2.95;;;;;;;10.42;100.00;95391.34;5030013;28;20049;-72
2022/06/01 03:02:38;;;;;;;6.18;3.40;;;;;;;10.46;100.00;95388.94;5021343;28;20133;-73
2022/06/01 03:05:04;;;;;;;5.82;3.40;;;;;;;10.38;100.00;95392.94;5028045;28;20072;-72
2022/06/01 03:07:29;;;;;;;10.40;3.53;;;;;;;10.42;100.00;95393.19;5021044;28;20491;-73
2022/06/01 03:09:55;;;;;;;5.30;3.65;;;;;;;10.39;100.00;95391.88;5031033;28;20048;-73
2022/06/01 03:12:20;;;;;;;5.38;3.15;;;;;;;10.31;100.00;95389.78;5023710;28;20044;-73
2022/06/01 03:14:46;;;;;;;6.15;3.33;;;;;;;10.34;100.00;95389.28;5022648;28;20478;-73
2022/06/01 03:17:11;;;;;;;5.38;3.35;;;;;;;10.40;100.00;95389.00;5030784;28;20034;-73
2022/06/01 03:19:37;;;;;;;5.97;3.80;;;;;;;10.37;100.00;95389.53;5028232;28;20049;-73
2022/06/01 03:22:04;;;;;;;6.93;3.83;;;;;;;10.41;100.00;95400.28;5023541;28;20155;-73
2022/06/01 03:24:30;;;;;;;6.18;3.60;;;;;;;10.39;100.00;95394.53;5031176;28;20045;-73
2022/06/01 03:26:56;;;;;;;7.43;3.50;;;;;;;10.41;100.00;95397.66;5025662;28;20048;-73
2022/06/01 03:29:24;;;;;;;5.53;3.45;;;;;;;10.41;100.00;95402.91;5023652;28;20050;-72
2022/06/01 03:31:51;;;;;;;7.20;3.55;;;;;;;10.41;100.00;95397.66;5039282;28;20068;-72
2022/06/01 03:34:18;;;;;;;5.40;3.50;;;;;;;10.51;100.00;95399.47;5032241;28;20132;-72
2022/06/01 03:36:43;;;;;;;4.65;3.25;;;;;;;10.45;100.00;95409.22;5028857;28;20551;-72
2022/06/01 03:39:09;;;;;;;5.40;3.38;;;;;;;10.48;100.00;95410.53;5020144;28;20057;-72
2022/06/01 03:41:34;;;;;;;7.65;4.20;;;;;;;10.50;100.00;95409.22;5025400;28;20042;-72
2022/06/01 03:46:44;;;;;;;6.60;3.92;;;;;;;10.57;100.00;95419.41;5026365;28;20545;-72
2022/06/01 03:49:10;;;;;;;6.53;3.58;;;;;;;10.67;100.00;95408.06;5028024;28;20038;-72
2022/06/01 03:51:36;;;;;;;5.90;3.30;;;;;;;10.67;100.00;95414.09;5023255;28;20097;-72
2022/06/01 03:54:02;;;;;;;9.52;3.70;;;;;;;10.63;100.00;95405.19;5021278;28;20500;-71
2022/06/01 03:56:28;;;;;;;7.40;3.70;;;;;;;10.70;100.00;95408.31;5025600;28;20038;-72
2022/06/01 03:58:53;;;;;;;5.55;3.70;;;;;;;10.72;100.00;95405.41;5027844;28;20041;-72
2022/06/01 04:01:19;;;;;;;5.22;3.42;;;;;;;10.69;100.00;95411.22;5028460;28;20612;-72
2022/06/01 04:03:46;;;;;;;5.10;3.58;;;;;;;10.71;100.00;95403.81;5025500;28;20041;-72
2022/06/01 04:06:11;;;;;;;7.07;3.75;;;;;;;10.75;100.00;95407.50;5021818;28;20046;-72
2022/06/01 04:08:37;;;;;;;9.20;3.63;;;;;;;10.80;100.00;95410.06;5020801;28;20068;-72
2022/06/01 04:11:03;;;;;;;8.32;3.58;;;;;;;10.84;100.00;95412.97;5024827;28;20105;-72
2022/06/01 04:13:29;;;;;;;6.97;3.53;;;;;;;10.94;100.00;95417.38;5018704;28;20041;-72
2022/06/01 04:15:55;;;;;;;5.38;3.60;;;;;;;10.88;100.00;95420.03;5030287;28;20084;-72
2022/06/01 04:18:21;;;;;;;7.60;3.53;;;;;;;10.91;100.00;95424.75;5015951;28;20041;-72
2022/06/01 04:20:48;;;;;;;6.88;3.58;;;;;;;10.90;100.00;95427.66;5021173;28;20092;-72
2022/06/01 04:23:14;;;;;;;6.97;3.67;;;;;;;11.06;100.00;95431.78;5030105;28;20741;-72
2022/06/01 04:25:40;;;;;;;6.50;3.22;;;;;;;11.17;100.00;95443.00;5030133;28;20052;-72
2022/06/01 04:28:05;;;;;;;6.22;3.30;;;;;;;11.22;100.00;95435.09;5027698;28;20037;-72
2022/06/01 04:30:31;;;;;;;7.15;3.28;;;;;;;11.19;100.00;95435.66;5023444;28;20080;-72
2022/06/01 04:32:57;;;;;;;5.55;3.45;;;;;;;11.24;100.00;95438.22;5027287;28;20048;-72
2022/06/01 04:35:24;;;;;;;7.90;3.60;;;;;;;11.31;100.00;95443.19;5029503;28;20033;-72
2022/06/01 04:37:50;;;;;;;7.60;3.28;;;;;;;11.33;100.00;95435.00;5026964;28;20406;-72
2022/06/01 04:40:17;;;;;;;6.53;3.50;;;;;;;11.39;100.00;95433.91;5028545;28;20042;-72
2022/06/01 04:42:43;;;;;;;5.97;3.25;;;;;;;11.53;100.00;95440.09;5020332;28;20048;-72
2022/06/01 04:45:12;;;;;;;6.47;3.63;;;;;;;11.60;100.00;95437.16;5028462;28;20042;-72
2022/06/01 04:47:38;;;;;;;6.93;3.22;;;;;;;11.75;100.00;95441.50;5027434;28;20041;-73
2022/06/01 04:50:05;;;;;;;5.35;3.17;;;;;;;11.76;100.00;95440.44;5024648;28;20462;-73
2022/06/01 04:52:30;;;;;;;5.45;3.60;;;;;;;11.82;100.00;95441.97;5024029;28;20044;-73
2022/06/01 04:54:56;;;;;;;6.35;3.25;;;;;;;11.94;100.00;95445.03;5029183;28;20041;-73
2022/06/01 04:57:21;;;;;;;10.88;3.45;;;;;;;12.03;100.00;95436.53;5029723;28;20037;-73
2022/06/01 04:59:47;;;;;;;9.35;3.38;;;;;;;12.14;100.00;95443.28;5026486;28;20068;-73
2022/06/01 05:02:14;;;;;;;5.63;3.25;;;;;;;12.23;100.00;95446.84;5029319;28;20041;-73
2022/06/01 05:04:40;;;;;;;5.47;3.38;;;;;;;12.35;100.00;95443.03;5029066;28;20774;-73
2022/06/01 05:07:07;;;;;;;7.60;3.25;;;;;;;12.50;100.00;95434.94;5029943;28;20108;-73
2022/06/01 05:09:33;;;;;;;6.35;3.45;;;;;;;12.64;100.00;95440.28;5027402;28;20438;-73
2022/06/01 05:11:58;;;;;;;6.80;3.13;;;;;;;12.72;100.00;95441.53;5019575;28;20049;-73
2022/06/01 05:14:24;;;;;;;8.68;3.33;;;;;;;12.78;100.00;95443.03;5013659;28;20115;-73
2022/06/01 05:16:50;;;;;;;4.55;3.08;;;;;;;12.88;100.00;95440.25;5025820;28;20471;-73
2022/06/01 05:19:18;;;;;;;6.65;3.13;;;;;;;12.87;100.00;95433.38;5024167;28;20092;-72
2022/06/01 05:21:43;;;;;;;6.43;3.40;;;;;;;13.02;100.00;95434.28;5024947;28;20076;-73
2022/06/01 05:24:09;;;;;;;6.95;3.17;;;;;;;13.09;100.00;95442.63;5020292;28;20045;-72
2022/06/01 05:26:34;;;;;;;9.45;3.55;;;;;;;13.17;100.00;95442.75;5027454;28;20125;-73
2022/06/01 05:28:59;;;;;;;5.45;3.10;;;;;;;13.31;100.00;95437.50;5025941;28;20045;-72
2022/06/01 05:31:25;;;;;;;6.72;3.38;;;;;;;13.38;100.00;95441.69;5022692;28;20042;-72
2022/06/01 05:33:50;;;;;;;7.40;4.40;;;;;;;13.52;100.00;95448.56;5028894;28;20045;-72
2022/06/01 05:36:17;;;;;;;11.57;3.95;;;;;;;13.63;100.00;95438.63;5029029;28;20041;-72
2022/06/01 05:38:45;;;;;;;7.28;3.40;;;;;;;13.73;100.00;95442.16;5028015;28;20044;-72
2022/06/01 05:41:12;;;;;;;5.38;3.47;;;;;;;13.84;98.93;95443.56;5028767;28;20044;-73
2022/06/01 05:43:37;;;;;;;9.65;3.35;;;;;;;13.89;98.68;95440.81;5028697;28;20547;-73
2022/06/01 05:46:03;;;;;;;7.68;3.90;;;;;;;13.85;99.20;95450.44;5028601;28;20041;-73
2022/06/01 05:48:28;;;;;;;5.10;3.28;;;;;;;13.90;99.10;95452.97;5028003;28;20052;-73
2022/06/01 05:50:54;;;;;;;5.20;3.00;;;;;;;13.84;98.49;95448.84;5023671;28;20077;-73
2022/06/01 05:53:20;;;;;;;5.00;3.38;;;;;;;13.91;98.29;95449.25;5029001;28;20175;-73
2022/06/01 05:55:45;;;;;;;7.40;3.65;;;;;;;14.02;96.01;95450.66;5024577;28;20385;-73
2022/06/01 05:58:14;;;;;;;5.88;3.47;;;;;;;14.01;97.83;95446.44;5025522;28;20037;-75
2022/06/01 06:00:40;;;;;;;6.00;3.50;;;;;;;14.02;98.29;95455.94;5030580;28;20125;-73
2022/06/01 06:03:06;;;;;;;6.95;3.33;;;;;;;14.13;98.70;95453.09;5031740;28;20100;-75
2022/06/01 06:08:15;;;;;;;6.43;3.17;;;;;;;14.32;94.16;95453.81;5026780;28;20033;-75
2022/06/01 06:10:42;;;;;;;6.25;3.90;;;;;;;14.20;96.48;95448.22;5028290;28;20049;-75
2022/06/01 06:13:07;;;;;;;6.45;3.25;;;;;;;14.37;94.00;95455.56;5030294;28;20069;-76
2022/06/01 06:15:33;;;;;;;8.82;3.88;;;;;;;14.33;94.79;95452.72;5021108;28;20052;-75
2022/06/01 06:17:58;;;;;;;7.60;3.80;;;;;;;14.43;92.92;95453.63;5031350;28;20050;-76
2022/06/01 06:20:23;;;;;;;8.00;3.90;;;;;;;14.29;93.62;95449.09;5032007;28;20469;-75
2022/06/01 06:22:49;;;;;;;7.85;3.90;;;;;;;14.54;90.83;95444.38;5031588;28;20073;-76
2022/06/01 06:25:15;;;;;;;5.72;3.60;;;;;;;14.64;93.40;95454.00;5028785;28;20033;-74
2022/06/01 06:27:40;;;;;;;8.10;3.75;;;;;;;14.77;92.81;95441.81;5032388;28;20092;-74
2022/06/01 06:30:06;;;;;;;7.35;3.95;;;;;;;14.88;92.83;95453.78;5029373;28;20438;-75
2022/06/01 06:32:32;;;;;;;8.75;3.50;;;;;;;14.92;92.23;95449.44;5032942;28;20037;-74
2022/06/01 06:34:57;;;;;;;6.40;3.67;;;;;;;15.07;89.15;95451.78;5032952;28;20121;-74
2022/06/01 06:37:23;;;;;;;5.45;3.63;;;;;;;15.00;91.06;95445.31;5031422;28;20407;-75
2022/06/01 06:39:48;;;;;;;17.08;4.50;;;;;;;14.99;87.60;95449.81;5029940;28;20053;-75
2022/06/01 06:42:14;;;;;;;8.85;3.97;;;;;;;15.15;86.76;95447.59;5030339;28;20068;-74
2022/06/01 06:44:39;;;;;;;6.05;3.50;;;;;;;15.35;88.35;95449.00;5032010;28;20120;-74
2022/06/01 06:47:05;;;;;;;6.57;3.78;;;;;;;15.16;87.50;95448.41;5031860;28;20748;-76
2022/06/01 06:49:30;;;;;;;6.38;3.60;;;;;;;15.36;87.26;95453.25;5031991;28;20095;-75
2022/06/01 06:51:56;;;;;;;8.75;3.97;;;;;;;15.40;nan;95438.31;5029278;28;20048;-75
2022/06/01 06:54:22;;;;;;;11.00;4.55;;;;;;;15.57;85.38;95444.78;5028627;28;20111;-75
2022/06/01 06:56:47;;;;;;;5.50;3.72;;;;;;;15.51;82.95;95440.69;5031233;28;20045;-76
2022/06/01 06:59:15;;;;;;;10.02;4.53;;;;;;;15.55;84.97;95445.09;5030672;28;20049;-76
2022/06/01 07:01:41;;;;;;;14.32;5.03;;;;;;;15.38;85.34;95451.06;5031828;28;20057;-76
2022/06/01 07:04:07;;;;;;;9.32;4.13;;;;;;;15.58;85.33;95441.06;5024496;28;20069;-75
2022/06/01 07:06:32;;;;;;;7.65;3.75;;;;;;;15.47;86.68;95442.38;5027007;28;20432;-75
2022/06/01 07:09:00;;;;;;;9.85;4.43;;;;;;;15.39;87.07;95430.66;5022948;28;20091;-76
2022/06/01 07:11:28;;;;;;;8.85;4.28;;;;;;;15.41;86.90;95434.56;5028978;28;20038;-74
2022/06/01 07:13:54;;;;;;;9.93;4.30;;;;;;;15.86;81.74;95438.28;5028424;28;20044;-76
2022/06/01 07:16:24;;;;;;;8.75;4.25;;;;;;;15.89;82.30;95448.31;5029328;28;20046;-76
2022/06/01 07:18:51;;;;;;;7.10;4.03;;;;;;;15.65;84.48;95444.06;5023290;28;20042;-75
2022/06/01 07:21:18;;;;;;;6.75;4.10;;;;;;;15.91;80.50;95441.56;5025143;28;20045;-76
2022/06/01 07:23:45;;;;;;;7.25;4.55;;;;;;;15.83;82.99;95444.19;5032413;28;20541;-76
2022/06/01 07:26:14;;;;;;;7.15;4.00;;;;;;;15.87;82.70;95434.53;5030010;28;20783;-75
2022/06/01 07:28:40;;;;;;;7.05;4.15;;;;;;;16.14;83.56;95440.75;5030886;28;20068;-75
2022/06/01 07:31:06;;;;;;;6.85;4.53;;;;;;;16.32;81.05;95442.41;5029186;28;20043;-76
2022/06/01 07:33:33;;;;;;;9.35;4.00;;;;;;;16.40;82.27;95446.94;5031290;28;20514;-75
2022/06/01 07:36:01;;;;;;;5.82;4.00;;;;;;;16.43;83.45;95451.66;5030475;28;20044;-76
2022/06/01 07:44:07;;;;;;;8.30;4.40;;;;;;;16.30;80.30;95441.91;5030599;28;20112;-77
2022/06/01 07:46:34;;;;;;;9.50;4.50;;;;;;;16.06;83.98;95442.28;5029916;28;20042;-76
2022/06/01 07:49:00;;;;;;;11.52;4.50;;;;;;;15.88;85.74;95430.81;5031320;28;20116;-76
2022/06/01 07:51:25;;;;;;;8.07;4.13;;;;;;;15.97;84.84;95428.97;5025682;28;20038;-75
2022/06/01 07:53:51;;;;;;;6.95;4.20;;;;;;;16.27;82.81;95426.59;5027193;28;20410;-74
2022/06/01 07:56:16;;;;;;;9.50;4.32;;;;;;;16.29;78.68;95429.72;5030465;28;20034;-73
2022/06/01 07:58:42;;;;;;;6.85;4.03;;;;;;;16.17;81.88;95437.50;5028244;28;20107;-75
2022/06/01 08:01:07;;;;;;;9.80;4.30;;;;;;;16.16;80.38;95427.94;5027884;28;20044;-75
2022/06/01 08:03:33;;;;;;;7.88;4.38;;;;;;;16.13;74.41;95425.91;5028731;28;20041;-75
2022/06/01 08:05:58;;;;;;;7.63;3.90;;;;;;;16.55;72.22;95426.34;5031715;28;20053;-75
2022/06/01 08:08:24;;;;;;;6.75;3.85;;;;;;;16.83;71.79;95424.22;5030881;28;20041;-72
2022/06/01 08:10:49;;;;;;;7.97;4.35;;;;;;;16.67;74.84;95418.56;5028738;28;20055;-72
2022/06/01 08:13:15;;;;;;;8.52;4.50;;;;;;;16.60;74.40;95421.66;5028301;28;20049;-72
2022/06/01 08:15:47;;;;;;;7.30;4.20;;;;;;;16.86;72.75;95420.16;5030309;28;20056;-74
2022/06/01 08:18:19;;;;;;;8.63;4.68;;;;;;;17.24;70.14;95419.56;5029454;28;20491;-74
2022/06/01 08:20:45;;;;;;;6.30;4.15;;;;;;;17.04;70.74;95416.44;5027955;28;20115;-73
2022/06/01 08:23:10;;;;;;;9.32;3.97;;;;;;;17.26;68.06;95417.38;5022360;28;20076;-72
2022/06/01 08:25:37;;;;;;;9.02;4.00;;;;;;;17.29;65.61;95416.75;5030245;28;20072;-73
2022/06/01 08:28:04;;;;;;;6.28;3.78;;;;;;;17.42;59.53;95420.34;5026170;28;20388;-74
2022/06/01 08:30:31;;;;;;;5.65;3.70;;;;;;;17.50;61.47;95419.53;5023415;28;20045;-75
2022/06/01 08:32:58;;;;;;;5.72;3.58;;;;;;;17.81;59.59;95422.00;5029211;28;20121;-76
2022/06/01 08:35:30;;;;;;;9.15;3.80;;;;;;;17.65;61.23;95412.94;5029309;28;20411;-76
2022/06/01 08:37:57;;;;;;;5.93;3.70;;;;;;;17.88;63.00;95410.84;5029757;28;20167;-75
2022/06/01 08:40:26;;;;;;;9.52;3.42;;;;;;;17.99;57.70;95416.63;5029450;28;20037;-75
2022/06/01 08:43:13;;;;;;;8.32;3.85;;;;;;;18.04;58.36;95429.75;5024056;28;20483;-76
2022/06/01 08:45:44;;;;;;;8.57;3.90;;;;;;;18.05;59.39;95428.66;5023960;28;20037;-76
2022/06/01 08:48:17;;;;;;;6.03;3.45;;;;;;;18.17;52.57;95420.78;5024182;28;20038;-72
2022/06/01 08:50:42;;;;;;;10.15;3.33;;;;;;;18.20;52.76;95415.91;5031861;28;20037;-74
2022/06/01 08:53:09;;;;;;;8.75;3.40;;;;;;;18.03;51.42;95422.88;5028808;28;20045;-74
2022/06/01 08:55:44;;;;;;;5.38;3.50;;;;;;;17.97;54.88;95424.13;5029498;28;20040;-73
2022/06/01 08:58:16;;;;;;;6.47;3.25;;;;;;;18.15;51.92;95425.66;5029167;28;20403;-74
2022/06/01 09:00:56;;;;;;;6.57;3.00;;;;;;;18.60;52.16;95423.56;5027771;28;20049;-74
2022/06/01 09:03:38;;;;;;;4.97;3.38;;;;;;;18.65;51.12;95426.03;5028961;28;20034;-75
2022/06/01 09:06:19;;;;;;;6.93;3.10;;;;;;;18.66;51.31;95419.59;5028884;28;20059;-74
2022/06/01 09:08:55;;;;;;;9.60;3.72;;;;;;;18.66;49.08;95412.38;5029354;28;20045;-73
2022/06/01 09:11:28;;;;;;;6.28;3.42;;;;;;;18.80;49.40;95411.34;5024092;28;20054;-73
2022/06/01 09:14:02;;;;;;;11.43;3.63;;;;;;;18.64;50.75;95408.47;5029159;28;20064;-74
2022/06/01 09:16:40;;;;;;;10.38;3.03;;;;;;;18.85;50.37;95413.84;5028789;28;20069;-74
2022/06/01 09:19:16;;;;;;;7.78;3.10;;;;;;;19.09;50.47;95399.84;5028552;28;20068;-74
2022/06/01 09:24:35;;;;;;;7.22;3.50;;;;;;;19.19;50.24;95396.81;5027199;28;20385;-74
2022/06/01 09:27:10;;;;;;;8.05;3.15;;;;;;;19.21;50.11;95399.94;5024466;28;20037;-74
2022/06/01 09:29:52;;;;;;;6.93;3.15;;;;;;;19.28;50.09;95415.41;5025683;28;20046;-74
2022/06/01 09:32:33;;;;;;;6.35;3.00;;;;;;;19.53;46.93;95402.94;5020379;28;20044;-74
2022/06/01 09:35:11;;;;;;;7.03;3.42;;;;;;;19.73;46.55;95397.88;5027614;28;20417;-74
2022/06/01 09:37:45;;;;;;;7.28;3.00;;;;;;;19.88;47.04;95394.59;5028414;28;20118;-74
2022/06/01 09:40:26;;;;;;;7.57;3.10;;;;;;;20.12;47.21;95406.41;5015234;28;20043;-74
2022/06/01 09:42:53;;;;;;;5.22;2.97;;;;;;;20.12;46.17;95402.97;5026645;28;20037;-74
2022/06/01 09:45:25;;;;;;;10.00;3.40;;;;;;;20.02;49.44;95401.50;5028596;28;20430;-74
2022/06/01 09:47:52;;;;;;;6.43;2.95;;;;;;;19.92;47.14;95402.72;5028500;28;20076;-74
2022/06/01 09:50:24;;;;;;;7.00;3.53;;;;;;;20.28;47.24;95411.09;5027293;28;20041;-73
2022/06/01 09:53:20;;;;;;;4.07;2.72;;;;;;;20.40;45.79;95403.06;5028364;28;20499;-75
2022/06/01 09:56:02;;;;;;;6.13;2.80;;;;;;;20.46;46.87;95404.41;5008205;28;20053;-74
2022/06/01 10:07:07;;;;;;;5.78;2.90;;;;;;;20.94;44.24;95399.34;5028975;28;20125;-74
2022/06/01 10:09:34;;;;;;;4.28;2.58;;;;;;;20.96;45.08;95399.00;5022062;28;20048;-74
2022/06/01 10:12:37;;;;;;;4.97;2.95;;;;;;;21.19;43.91;95400.06;5021183;28;20046;-74
2022/06/01 10:15:11;;;;;;;6.20;3.13;;;;;;;21.03;44.03;95396.53;5002176;28;20080;-75
2022/06/01 10:17:42;;;;;;;6.47;2.60;;;;;;;21.20;43.74;95406.94;5029095;28;20406;-74
2022/06/01 10:20:11;;;;;;;6.60;2.80;;;;;;;21.28;44.00;95398.00;5028326;28;20042;-74
2022/06/01 10:22:42;;;;;;;4.80;2.70;;;;;;;21.51;43.08;95402.84;5027590;28;20108;-72
2022/06/01 10:25:32;;;;;;;8.27;2.75;;;;;;;21.05;44.82;95394.31;5023290;28;20408;-75
2022/06/01 10:28:06;;;;;;;5.07;2.58;;;;;;;21.07;46.60;95397.41;5029848;28;20045;-78
2022/06/01 10:30:41;;;;;;;5.03;2.92;;;;;;;21.42;42.69;95399.50;5027724;28;20045;-74
2022/06/01 10:33:17;;;;;;;5.80;3.00;;;;;;;21.11;44.80;95400.97;5027566;28;20044;-76
2022/06/01 10:36:12;;;;;;;10.10;3.08;;;;;;;21.00;43.53;95418.59;5028239;28;20045;-74
2022/06/01 10:38:46;;;;;;;7.72;2.83;;;;;;;20.87;45.58;95415.94;5022985;28;20056;-76
2022/06/01 10:41:20;;;;;;;7.32;2.70;;;;;;;21.19;47.37;95405.41;5027778;28;20045;-76
2022/06/01 10:44:02;;;;;;;6.00;2.90;;;;;;;21.17;44.90;95414.88;5034460;28;20029;-75
2022/06/01 10:46:37;;;;;;;4.28;2.60;;;;;;;21.12;43.48;95405.22;5030718;28;20115;-76
2022/06/01 10:49:26;;;;;;;4.10;2.80;;;;;;;21.06;43.25;95414.56;5031392;28;20099;-77
2022/06/01 10:52:03;;;;;;;7.85;2.80;;;;;;;21.19;43.76;95420.66;5034102;28;20545;-76
2022/06/01 10:54:38;;;;;;;5.45;2.88;;;;;;;21.28;44.60;95408.72;5031651;28;20045;-77
2022/06/01 10:57:13;;;;;;;7.18;2.80;;;;;;;21.13;44.02;95406.75;5034963;28;20530;-76
2022/06/01 10:59:39;;;;;;;4.25;2.50;;;;;;;21.43;44.63;95417.13;5028289;28;20095;-77
2022/06/01 11:02:35;;;;;;;7.65;2.97;;;;;;;21.45;45.07;95413.00;5033490;28;20046;-77
2022/06/01 11:05:23;;;;;;;6.78;2.53;;;;;;;22.10;42.61;95408.53;5034078;28;20140;-77
2022/06/01 11:07:49;;;;;;;5.07;2.85;;;;;;;22.63;42.60;95409.00;5028269;28;20116;-77
2022/06/01 11:10:42;;;;;;;6.43;3.10;;;;;;;22.83;41.39;95411.75;5032810;28;20041;-77
2022/06/01 11:13:15;;;;;;;7.93;3.20;;;;;;;22.86;41.10;95411.03;5027725;28;20104;-77
2022/06/01 11:16:12;;;;;;;6.68;2.75;;;;;;;22.60;41.35;95393.63;5031654;28;20406;-76
2022/06/01 11:18:54;;;;;;;5.28;3.05;;;;;;;22.67;41.70;95398.38;5020570;28;20088;-76
2022/06/01 11:21:47;;;;;;;4.68;2.78;;;;;;;22.96;40.94;95397.06;5031670;28;20038;-77
2022/06/01 11:24:35;;;;;;;11.55;3.00;;;;;;;23.34;40.62;95387.47;5031268;28;20034;-77
2022/06/01 11:27:20;;;;;;;4.68;2.70;;;;;;;23.30;40.68;95394.72;5025202;28;20044;-76
2022/06/01 11:30:03;;;;;;;3.83;2.63;;;;;;;23.32;40.49;95384.38;5018661;28;20088;-75
2022/06/01 11:32:38;;;;;;;5.88;3.10;;;;;;;23.76;39.85;95390.53;5057225;28;20081;-76
2022/06/01 11:35:20;;;;;;;5.00;2.30;;;;;;;23.96;38.05;95384.00;5057034;28;20060;-74
2022/06/01 11:37:55;;;;;;;7.22;2.63;;;;;;;23.18;37.31;95384.09;5053744;28;20032;-74
2022/06/01 11:40:36;;;;;;;7.65;2.83;;;;;;;23.20;37.80;95379.16;5058516;28;20037;-72
2022/06/01 11:43:10;;;;;;;5.55;2.58;;;;;;;22.79;38.44;95384.06;5053423;28;20017;-75
2022/06/01 11:45:42;;;;;;;4.85;2.80;;;;;;;23.11;39.28;95386.66;5058030;28;20053;-73
2022/06/01 11:48:12;;;;;;;4.35;2.53;;;;;;;23.63;39.02;95377.28;5055377;28;20038;-73
2022/06/01 11:51:06;;;;;;;4.18;2.53;;;;;;;24.04;37.83;95374.91;5054270;28;20029;-76
2022/06/01 11:53:36;;;;;;;6.25;2.58;;;;;;;24.75;37.50;95378.28;5075373;28;20026;-73
2022/06/01 11:56:14;;;;;;;4.45;2.45;;;;;;;24.71;35.13;95373.63;5060341;28;20067;-73
2022/06/01 11:58:47;;;;;;;6.15;2.85;;;;;;;24.85;35.87;95377.63;5047088;28;20017;-73
2022/06/01 12:01:46;;;;;;;6.15;2.72;;;;;;;25.83;35.59;95361.44;5051528;28;20030;-73
2022/06/01 12:04:20;;;;;;;4.25;2.70;;;;;;;26.05;34.17;95367.78;5050294;28;20042;-73
2022/06/01 12:06:56;;;;;;;4.85;2.67;;;;;;;25.80;33.49;95372.16;5050158;28;20517;-76
2022/06/01 12:09:44;;;;;;;4.90;2.90;;;;;;;26.24;32.89;95360.59;5028649;28;20045;-75